Kampville, Missouri
Current Conditions -  °F | °C
As of 5:54 AM on Sunday 23 Nov 2014 (Local Time) from KSET Reporting Station
Scattered Clouds Scattered Clouds  
Wind Chill: 44°   Ceiling: Unl
Heat Index: 47°   Visibility: 10mi
Dew Point: 44°   Wind: 6mph
Humidity: 90%   Direction: 90°E
Pressure: 29.74"   Gusts: NA
Location:  38.8615°N, 90.4548°W
Report Text: KSET 231154Z AUTO 09005KT 10SM SCT120 08/07 A2974 RMK AO2 SLP070 70003 T00830067 10111 20083 56013
Loading
Personal Weather Stations






























Interactive Weather Map New forecast layout! Learn more

10-Day Weather Forecast

Advertisements
Track Severe Weather on mobile